Zhetygen Airport

Jump to: basic info | weather | comments

Related pages: nearby airports | nearby navaids

Basic information (top)

Location: lon 43.733101, lat 77.119400, elev 1,638 ft / 499 m msl
Status: small_airport

Weather (top)

Current conditions for Almaty Airport 23nm (43km) S (rec'd 2014/11/28 09:00Z):

UAAA 280900Z 04001MPS 9999 BKN032 BKN100 M06/M17 Q1032 R05L/91//50 R05R/91//60 NOSIG

Airport forecast for Almaty Airport 23nm (43km) S (rec'd 2014/11/28 06:18Z):

TAF TAF UAAA 280500Z 2806/2906 02005MPS 3000 -SN BR BKN010 OVC100 TXM07/2806Z TNM16/2901Z 
      TEMPO 2811/2815 0400 FZFG FU VV002 
      TEMPO 2815/2906 0200 FZFG VV001

Latest comments (top)

No comments yet for Zhetygen Airport

More... (top)

See also NOTAMs and nearby airports and navaids, or visit the Zhetygen Airport page at the main OurAirports website..